Time;durP1;ratioP1;P1;durP2;ratioP2;P2;SDS_P1;SDS_P2;PMS_P1;PMS_P2;Temp;Humidity;BMP_temperature;BMP_pressure;BME280_temperature;BME280_humidity;BME280_pressure;Samples;Min_cycle;Max_cycle;Signal;HPM_P1;HPM_P2
2022/07/23 06:23:47;;;;;;;9.52;4.30;;;;;;;;;;6129193;23;20206;31
2022/07/23 08:47:01;;;;;;;1.90;1.80;;;;;;;;;;6171904;23;20457;-85
2022/07/23 08:49:28;;;;;;;4.32;2.35;;;;;;;;;;6189432;23;20020;-84
2022/07/23 08:51:54;;;;;;;2.65;1.80;;;;;;;;;;6216267;23;20360;-85
2022/07/23 08:54:22;;;;;;;2.33;1.58;;;;;;;;;;6203713;23;20005;-85
2022/07/23 08:56:48;;;;;;;1.63;1.52;;;;;;;;;;6185902;23;20401;-84
2022/07/23 08:59:14;;;;;;;1.77;1.67;;;;;;;;;;6186225;23;20005;-83
2022/07/23 09:01:39;;;;;;;2.03;1.73;;;;;;;;;;6185927;23;20051;-85
2022/07/23 09:04:05;;;;;;;1.92;1.80;;;;;;;;;;6186114;23;20012;-85
2022/07/23 09:06:31;;;;;;;1.92;1.50;;;;;;;;;;6159471;23;20008;-85
2022/07/23 09:08:57;;;;;;;2.20;1.75;;;;;;;;;;6186154;23;19997;-85
2022/07/23 09:11:23;;;;;;;2.38;1.88;;;;;;;;;;6184606;23;20009;-86
2022/07/23 09:13:53;;;;;;;2.45;1.70;;;;;;;;;;6186176;23;20012;-85
2022/07/23 09:16:24;;;;;;;1.98;1.70;;;;;;;;;;6186093;23;20052;-86
2022/07/23 09:18:55;;;;;;;1.50;1.40;;;;;;;;;;6186147;23;20009;-85
2022/07/23 09:21:28;;;;;;;2.05;1.83;;;;;;;;;;6186831;23;20005;-85
2022/07/23 09:24:03;;;;;;;2.80;1.73;;;;;;;;;;6186477;23;20008;-86
2022/07/23 09:26:35;;;;;;;1.83;1.73;;;;;;;;;;6188254;23;20083;-86
2022/07/23 09:29:05;;;;;;;2.75;1.98;;;;;;;;;;6161736;23;20016;-87
2022/07/23 09:31:52;;;;;;;2.45;1.60;;;;;;;;;;6187711;23;20012;-87
2022/07/23 09:34:25;;;;;;;1.65;1.55;;;;;;;;;;6187467;23;20032;-86
2022/07/23 09:36:56;;;;;;;2.90;1.88;;;;;;;;;;6161383;23;20016;-88
2022/07/23 09:39:27;;;;;;;2.22;1.98;;;;;;;;;;6187829;23;20005;-89
2022/07/23 09:41:52;;;;;;;1.80;1.70;;;;;;;;;;6187822;23;20009;-88
2022/07/23 09:44:20;;;;;;;2.80;1.90;;;;;;;;;;6187972;23;20047;-86
2022/07/23 09:46:48;;;;;;;2.10;1.90;;;;;;;;;;6187817;23;20017;-86
2022/07/23 09:49:21;;;;;;;2.08;1.83;;;;;;;;;;6187846;23;20001;-86
2022/07/23 09:51:51;;;;;;;2.97;1.80;;;;;;;;;;6187785;23;20005;-87
2022/07/23 09:54:34;;;;;;;2.00;1.90;;;;;;;;;;6187735;23;20448;-86
2022/07/23 09:57:15;;;;;;;2.15;1.90;;;;;;;;;;6187554;23;20013;-89
2022/07/23 09:59:42;;;;;;;2.42;2.10;;;;;;;;;;6187575;23;20085;-87
2022/07/23 10:02:11;;;;;;;5.78;2.17;;;;;;;;;;6187774;23;20052;-86
2022/07/23 10:04:37;;;;;;;2.95;1.75;;;;;;;;;;6187815;23;20008;-87
2022/07/23 10:07:05;;;;;;;5.40;2.80;;;;;;;;;;6161372;23;20012;-87
2022/07/23 10:09:36;;;;;;;2.33;2.13;;;;;;;;;;6187774;23;20028;-85
2022/07/23 10:12:23;;;;;;;2.30;1.80;;;;;;;;;;6187921;23;19997;-85
2022/07/23 10:14:49;;;;;;;2.33;1.60;;;;;;;;;;6187841;23;20029;-85
2022/07/23 10:17:15;;;;;;;2.75;1.73;;;;;;;;;;6187677;23;20047;-88
2022/07/23 10:19:41;;;;;;;2.38;2.17;;;;;;;;;;6187920;23;20005;-87
2022/07/23 10:22:09;;;;;;;2.03;1.85;;;;;;;;;;6187652;23;20059;-84
2022/07/23 10:24:56;;;;;;;2.67;1.98;;;;;;;;;;6187510;23;20076;-85
2022/07/23 10:27:49;;;;;;;2.38;1.98;;;;;;;;;;6187555;23;20009;-88
2022/07/23 10:30:27;;;;;;;2.15;1.95;;;;;;;;;;6187577;23;20031;-85
2022/07/23 10:33:12;;;;;;;2.55;2.00;;;;;;;;;;6161259;23;20001;-90
2022/07/23 10:35:42;;;;;;;2.65;1.92;;;;;;;;;;6161327;23;20334;-93
2022/07/23 10:38:23;;;;;;;2.55;2.03;;;;;;;;;;6187506;23;20009;-89
2022/07/23 10:41:07;;;;;;;2.55;2.20;;;;;;;;;;6187532;23;20297;-88
2022/07/23 10:43:32;;;;;;;1.92;1.75;;;;;;;;;;6187175;23;20005;-89
2022/07/23 10:46:43;;;;;;;3.42;2.03;;;;;;;;;;6187220;23;20096;-86
2022/07/23 10:49:27;;;;;;;2.50;2.30;;;;;;;;;;6185926;23;20103;-88
2022/07/23 10:52:14;;;;;;;2.53;2.33;;;;;;;;;;6185947;23;20063;-88
2022/07/23 10:54:47;;;;;;;2.63;2.42;;;;;;;;;;6161221;23;20012;-88
2022/07/23 10:57:13;;;;;;;2.63;2.30;;;;;;;;;;6187535;23;20030;-89
2022/07/23 11:00:11;;;;;;;2.30;2.10;;;;;;;;;;6161077;23;20009;-90
2022/07/23 11:02:41;;;;;;;4.53;2.50;;;;;;;;;;6160580;23;20004;-87
2022/07/23 11:05:13;;;;;;;2.63;2.22;;;;;;;;;;6160764;23;20009;-86
2022/07/23 11:08:15;;;;;;;2.78;2.38;;;;;;;;;;6187412;23;20459;-85
2022/07/23 11:10:50;;;;;;;2.50;2.30;;;;;;;;;;6125531;23;20039;-87
2022/07/23 11:13:22;;;;;;;2.38;2.20;;;;;;;;;;6187266;23;20493;-87
2022/07/23 11:16:19;;;;;;;3.00;2.70;;;;;;;;;;6160740;23;20096;-84
2022/07/23 11:18:47;;;;;;;4.20;2.40;;;;;;;;;;6160658;23;20040;-87
2022/07/23 11:21:28;;;;;;;2.38;2.17;;;;;;;;;;6186985;23;20004;-85
2022/07/23 11:23:57;;;;;;;3.22;2.53;;;;;;;;;;6187143;23;20448;-84
2022/07/23 14:04:56;;;;;;;10.35;9.32;;;;;;;;;;6128217;23;20023;-86
2022/07/23 14:07:22;;;;;;;11.48;10.50;;;;;;;;;;6186652;23;20080;-87
2022/07/23 14:09:48;;;;;;;13.80;10.65;;;;;;;;;;6161749;23;20009;-85
2022/07/23 16:57:28;;;;;;;10.15;8.90;;;;;;;;;;6188852;23;20017;-84
2022/07/23 16:59:53;;;;;;;9.88;8.85;;;;;;;;;;6186085;23;20017;-81
2022/07/23 17:02:19;;;;;;;10.30;9.38;;;;;;;;;;6182813;23;20029;-89
2022/07/23 17:04:44;;;;;;;9.93;8.90;;;;;;;;;;6159131;23;20405;-85
2022/07/23 17:07:10;;;;;;;10.00;9.00;;;;;;;;;;6158103;23;20006;-86
2022/07/23 17:09:35;;;;;;;9.63;8.55;;;;;;;;;;6156711;23;20055;-82
2022/07/23 17:12:02;;;;;;;10.50;8.77;;;;;;;;;;6156300;23;20056;-84
2022/07/23 17:14:28;;;;;;;9.65;8.60;;;;;;;;;;6156188;23;20005;-89
2022/07/23 17:16:54;;;;;;;11.13;9.82;;;;;;;;;;6156258;23;20040;-83
2022/07/23 17:19:20;;;;;;;10.63;9.60;;;;;;;;;;6156283;23;20392;-81
2022/07/23 17:21:45;;;;;;;10.60;9.43;;;;;;;;;;6156128;23;20344;-82
2022/07/23 17:24:11;;;;;;;9.40;8.48;;;;;;;;;;6156166;23;20008;-83
2022/07/23 17:26:37;;;;;;;9.43;7.90;;;;;;;;;;6156159;23;20009;-83
2022/07/23 17:29:03;;;;;;;9.77;8.38;;;;;;;;;;6156583;23;20005;-82
2022/07/23 17:31:30;;;;;;;12.90;9.18;;;;;;;;;;6156579;23;20008;-84
2022/07/23 17:33:58;;;;;;;10.65;8.98;;;;;;;;;;6160675;23;20010;-79
2022/07/23 17:36:24;;;;;;;9.15;8.30;;;;;;;;;;6161461;23;20006;-84
2022/07/23 17:38:53;;;;;;;11.43;8.32;;;;;;;;;;6156194;23;20033;-81
2022/07/23 17:41:19;;;;;;;;;;;;;;;;;;6159387;23;20008;-83
2022/07/23 17:43:50;;;;;;;8.63;7.65;;;;;;;;;;6158382;23;20473;-81
2022/07/23 17:46:15;;;;;;;9.95;8.98;;;;;;;;;;6156898;23;20005;-79
2022/07/23 17:48:41;;;;;;;9.90;9.02;;;;;;;;;;6159104;23;20040;-81
2022/07/23 17:51:08;;;;;;;11.40;8.98;;;;;;;;;;6160159;23;20006;-87
2022/07/23 17:53:34;;;;;;;9.60;8.65;;;;;;;;;;6158577;23;20001;-84
2022/07/23 17:56:00;;;;;;;9.68;8.27;;;;;;;;;;6161710;23;20008;-81
2022/07/23 17:58:26;;;;;;;8.43;7.60;;;;;;;;;;6188026;23;20009;-84
2022/07/23 18:00:52;;;;;;;8.18;7.22;;;;;;;;;;6187778;23;20005;-84
2022/07/23 18:03:17;;;;;;;6.80;6.20;;;;;;;;;;6187771;23;20005;-85
2022/07/23 18:05:43;;;;;;;7.53;6.68;;;;;;;;;;6186217;23;20429;-84
2022/07/23 18:08:09;;;;;;;6.63;6.13;;;;;;;;;;6187544;23;20008;-85
2022/07/23 18:10:35;;;;;;;6.60;5.88;;;;;;;;;;6161188;23;20056;-84
2022/07/23 18:13:01;;;;;;;6.43;5.85;;;;;;;;;;6187574;23;20048;-86
2022/07/23 18:15:26;;;;;;;5.60;5.10;;;;;;;;;;6187548;23;20001;-84
2022/07/23 18:17:52;;;;;;;6.80;5.40;;;;;;;;;;6187442;23;20081;-84
2022/07/23 18:20:17;;;;;;;5.30;4.90;;;;;;;;;;6187492;23;20005;-85
2022/07/23 18:22:43;;;;;;;6.03;5.50;;;;;;;;;;6187245;23;20516;-85
2022/07/23 18:25:10;;;;;;;6.00;5.38;;;;;;;;;;6187481;23;20005;-83
2022/07/23 18:27:36;;;;;;;7.32;5.55;;;;;;;;;;6187252;23;20063;-84
2022/07/23 18:30:03;;;;;;;5.90;5.30;;;;;;;;;;6187517;23;20104;-84
2022/07/23 18:32:29;;;;;;;5.63;5.20;;;;;;;;;;6187517;23;20005;-83
2022/07/23 18:34:55;;;;;;;6.35;5.72;;;;;;;;;;6187410;23;20405;-86
2022/07/23 18:37:21;;;;;;;6.88;5.70;;;;;;;;;;6187410;23;20060;-83
2022/07/23 18:39:47;;;;;;;10.05;9.07;;;;;;;;;;6187117;23;20328;-88
2022/07/23 18:42:12;;;;;;;9.88;8.75;;;;;;;;;;6161845;23;20012;-85
2022/07/23 18:44:38;;;;;;;8.70;7.80;;;;;;;;;;6185678;23;20004;-83
2022/07/23 18:47:04;;;;;;;6.95;6.28;;;;;;;;;;6187423;23;20008;-85
2022/07/23 18:49:30;;;;;;;6.75;6.13;;;;;;;;;;6187318;23;20001;-84
2022/07/23 18:51:56;;;;;;;6.57;5.78;;;;;;;;;;6187424;23;20005;-83
2022/07/23 18:54:22;;;;;;;6.78;6.10;;;;;;;;;;6185484;23;20020;-85
2022/07/23 18:56:48;;;;;;;5.90;5.45;;;;;;;;;;6187177;23;20009;-84
2022/07/23 18:59:13;;;;;;;6.03;5.53;;;;;;;;;;6160783;23;20009;-82
2022/07/23 19:01:39;;;;;;;6.50;5.50;;;;;;;;;;6187260;23;20001;-82
2022/07/23 19:04:04;;;;;;;6.38;5.80;;;;;;;;;;6187047;23;20056;-82
2022/07/23 19:06:30;;;;;;;6.30;5.70;;;;;;;;;;6187296;23;20066;-83
2022/07/23 19:08:56;;;;;;;6.28;5.68;;;;;;;;;;6187498;23;20005;-82
2022/07/23 19:11:22;;;;;;;6.38;5.70;;;;;;;;;;6187366;23;20028;-86
2022/07/23 19:13:48;;;;;;;5.68;5.18;;;;;;;;;;6185542;23;20005;-84
2022/07/23 19:16:13;;;;;;;6.07;5.47;;;;;;;;;;6187148;23;20015;-89
2022/07/23 19:18:39;;;;;;;6.03;5.43;;;;;;;;;;6160515;23;20052;-89
2022/07/23 19:21:05;;;;;;;6.13;5.60;;;;;;;;;;6186741;23;20001;-89
2022/07/23 19:23:31;;;;;;;6.50;5.45;;;;;;;;;;6159803;23;20028;-89
2022/07/23 19:25:57;;;;;;;6.57;5.93;;;;;;;;;;6160678;23;20008;-87
2022/07/23 19:28:22;;;;;;;7.75;6.05;;;;;;;;;;6160723;23;20005;-88
2022/07/23 19:30:48;;;;;;;5.80;5.28;;;;;;;;;;6186836;23;20417;-89
2022/07/23 19:33:14;;;;;;;6.53;5.78;;;;;;;;;;6186931;23;20001;-88
2022/07/23 19:35:39;;;;;;;5.50;5.00;;;;;;;;;;6186941;23;20408;-89
2022/07/23 19:38:05;;;;;;;6.03;5.47;;;;;;;;;;6186710;23;20279;-89
2022/07/23 19:40:30;;;;;;;6.53;5.80;;;;;;;;;;6186836;23;20016;-89
2022/07/23 19:42:55;;;;;;;6.45;5.85;;;;;;;;;;6185354;23;20480;-89
2022/07/23 19:45:21;;;;;;;7.53;5.88;;;;;;;;;;6187066;23;20012;-89
2022/07/23 19:47:47;;;;;;;6.60;6.07;;;;;;;;;;6186771;23;20071;-89
2022/07/23 19:50:14;;;;;;;5.85;5.35;;;;;;;;;;6160383;23;20088;-89
2022/07/23 19:52:39;;;;;;;6.65;5.95;;;;;;;;;;6160356;23;20088;-89
2022/07/23 19:55:06;;;;;;;7.20;5.22;;;;;;;;;;6160527;23;20202;-89
2022/07/23 19:57:32;;;;;;;5.70;5.20;;;;;;;;;;6186415;23;20017;-89
2022/07/23 19:59:57;;;;;;;5.40;4.97;;;;;;;;;;6160274;23;20318;-89
2022/07/23 20:02:23;;;;;;;6.00;5.13;;;;;;;;;;6185090;23;20337;-88
2022/07/23 20:04:48;;;;;;;7.28;5.53;;;;;;;;;;6186449;23;20324;-88
2022/07/23 20:07:14;;;;;;;5.70;5.20;;;;;;;;;;6186387;23;20477;-89
2022/07/23 20:09:40;;;;;;;5.90;5.30;;;;;;;;;;6160359;23;20040;-89
2022/07/23 20:12:06;;;;;;;5.75;5.20;;;;;;;;;;6160069;23;20041;-89
2022/07/23 20:14:31;;;;;;;6.00;5.45;;;;;;;;;;6186643;23;20008;-89
2022/07/23 20:16:57;;;;;;;6.18;5.60;;;;;;;;;;6186457;23;20001;-88
2022/07/23 20:19:23;;;;;;;6.65;5.63;;;;;;;;;;6186524;23;20009;-88
2022/07/23 20:21:49;;;;;;;7.65;6.05;;;;;;;;;;6160076;23;20017;-88
2022/07/23 20:24:17;;;;;;;7.53;5.55;;;;;;;;;;6159861;23;20028;-88
2022/07/23 20:26:45;;;;;;;6.70;5.95;;;;;;;;;;6160189;23;20013;-88
2022/07/23 20:29:11;;;;;;;5.88;5.30;;;;;;;;;;6186473;23;20435;-88
2022/07/23 20:31:37;;;;;;;5.68;5.20;;;;;;;;;;6160011;23;20062;-88
2022/07/23 20:34:02;;;;;;;6.07;5.45;;;;;;;;;;6186225;23;20044;-89
2022/07/23 20:36:28;;;;;;;5.70;5.20;;;;;;;;;;6184887;23;20047;-89
2022/07/23 20:38:53;;;;;;;5.20;4.80;;;;;;;;;;6159921;23;20016;-89
2022/07/23 20:41:19;;;;;;;7.47;5.70;;;;;;;;;;6159864;23;20100;-89
2022/07/23 20:43:44;;;;;;;6.13;4.93;;;;;;;;;;6186477;23;20025;-89
2022/07/23 20:46:10;;;;;;;5.70;5.03;;;;;;;;;;6186356;23;20012;-89
2022/07/23 20:48:35;;;;;;;4.80;4.40;;;;;;;;;;6186469;23;20008;-89
2022/07/23 20:51:01;;;;;;;5.63;5.13;;;;;;;;;;6186179;23;20083;-89
2022/07/23 20:53:26;;;;;;;5.28;4.20;;;;;;;;;;6186343;23;20079;-89
2022/07/23 20:55:54;;;;;;;5.40;4.90;;;;;;;;;;6186085;23;19993;-89
2022/07/23 20:58:19;;;;;;;5.40;4.93;;;;;;;;;;6185835;23;20005;-86
2022/07/23 21:00:45;;;;;;;5.50;4.55;;;;;;;;;;6184460;23;20001;-87
2022/07/23 21:03:12;;;;;;;5.03;4.63;;;;;;;;;;6186196;23;20001;-88
2022/07/23 21:05:37;;;;;;;4.88;4.40;;;;;;;;;;6159786;23;20332;-88
2022/07/23 21:08:03;;;;;;;4.82;4.28;;;;;;;;;;6159874;23;20001;-87
2022/07/23 21:10:28;;;;;;;6.03;4.80;;;;;;;;;;6185938;23;20012;-85
2022/07/23 21:12:54;;;;;;;5.20;4.70;;;;;;;;;;6186024;23;20421;-86
2022/07/23 21:15:19;;;;;;;5.07;4.63;;;;;;;;;;6186127;23;20028;-86
2022/07/23 21:17:45;;;;;;;4.70;4.28;;;;;;;;;;6159151;23;20001;-86
2022/07/23 21:20:10;;;;;;;5.32;4.65;;;;;;;;;;6184340;23;20013;-86
2022/07/23 21:22:36;;;;;;;4.57;4.15;;;;;;;;;;6185827;23;20086;-86
2022/07/23 21:25:01;;;;;;;4.93;4.45;;;;;;;;;;6186430;23;20002;-86
2022/07/23 21:27:27;;;;;;;4.75;4.25;;;;;;;;;;6185948;23;20001;-86
2022/07/23 21:29:52;;;;;;;5.85;4.22;;;;;;;;;;6185948;23;20081;-86
2022/07/23 21:32:17;;;;;;;4.43;4.03;;;;;;;;;;6185947;23;20425;-86
2022/07/23 21:34:43;;;;;;;4.80;4.40;;;;;;;;;;6185999;23;20072;-85
2022/07/23 21:37:08;;;;;;;5.65;3.95;;;;;;;;;;6186016;23;20001;-85
2022/07/23 21:39:34;;;;;;;7.68;4.43;;;;;;;;;;6186107;23;20421;-85
2022/07/23 21:41:59;;;;;;;4.30;3.90;;;;;;;;;;6185803;23;20009;-85
2022/07/23 21:44:25;;;;;;;4.35;4.03;;;;;;;;;;6186063;23;20431;-86
2022/07/23 21:46:50;;;;;;;4.85;4.15;;;;;;;;;;6184226;23;20036;-87
2022/07/23 21:49:16;;;;;;;4.93;4.43;;;;;;;;;;6185376;23;20009;-85
2022/07/23 21:51:44;;;;;;;5.80;5.20;;;;;;;;;;6185800;23;20088;-86
